Time;durP1;ratioP1;P1;durP2;ratioP2;P2;SDS_P1;SDS_P2;PMS_P1;PMS_P2;Temp;Humidity;BMP_temperature;BMP_pressure;BME280_temperature;BME280_humidity;BME280_pressure;Samples;Min_cycle;Max_cycle;Signal;HPM_P1;HPM_P2
2019/12/20 00:07:47;;;;;;;22.6;18.9;;;;;;;3.4;76.26953;949.9835;;;;
2019/12/20 00:10:04;;;;;;;24.2;19.1;;;;;;;3.39;76.49805;949.9988;;;;
2019/12/20 00:12:18;;;;;;;22.9;18.6;;;;;;;3.41;76.77832;950.02;;;;
2019/12/20 00:14:43;;;;;;;25.4;19.9;;;;;;;3.39;76.89063;950.0078;;;;
2019/12/20 00:17:08;;;;;;;25.5;19.3;;;;;;;3.44;76.85156;949.9689;;;;
2019/12/20 00:19:33;;;;;;;24.7;19.8;;;;;;;3.49;76.42383;949.9261;;;;
2019/12/20 00:21:58;;;;;;;25.7;18.9;;;;;;;3.42;76.5166;949.8236;;;;
2019/12/20 00:24:23;;;;;;;25.1;18.9;;;;;;;3.39;75.49707;949.8603;;;;
2019/12/20 00:26:49;;;;;;;25.3;19.3;;;;;;;3.31;75.27441;949.882;;;;
2019/12/20 00:29:14;;;;;;;22.7;19;;;;;;;3.37;75.30762;949.752;;;;
2019/12/20 00:31:39;;;;;;;24.3;19.9;;;;;;;3.39;75.25391;949.715;;;;
2019/12/20 00:34:04;;;;;;;23.1;19.2;;;;;;;3.26;75.63379;949.6448;;;;
2019/12/20 00:36:29;;;;;;;24.8;19.6;;;;;;;3.33;75.68164;949.5888;;;;
2019/12/20 00:38:54;;;;;;;25.3;18.8;;;;;;;3.18;76.0459;949.5559;;;;
2019/12/20 00:41:19;;;;;;;22.1;18.9;;;;;;;3.23;76.53711;949.5173;;;;
2019/12/20 00:43:44;;;;;;;24.3;19.2;;;;;;;3.22;76.29492;949.5112;;;;
2019/12/20 00:46:09;;;;;;;24.4;19.7;;;;;;;3.25;75.99902;949.5356;;;;
2019/12/20 00:48:34;;;;;;;23.4;18.6;;;;;;;3.31;76.13867;949.5502;;;;
2019/12/20 00:50:59;;;;;;;25;19.2;;;;;;;3.35;76.11035;949.5582;;;;
2019/12/20 00:53:24;;;;;;;23.7;19.8;;;;;;;3.17;77.3916;949.5497;;;;
2019/12/20 00:55:50;;;;;;;25;19.9;;;;;;;3.19;77.18652;949.5438;;;;
2019/12/20 00:58:15;;;;;;;25.4;19.4;;;;;;;3.23;76.58496;949.4537;;;;
2019/12/20 01:00:40;;;;;;;24.2;19.1;;;;;;;3.19;76.12793;949.4481;;;;
2019/12/20 01:03:05;;;;;;;27.4;20.2;;;;;;;3.16;76.45508;949.4169;;;;
2019/12/20 01:05:30;;;;;;;23.5;20;;;;;;;3.15;76.34082;949.3948;;;;
2019/12/20 01:07:55;;;;;;;25.1;19.8;;;;;;;3.1;76.75684;949.3614;;;;
2019/12/20 01:10:20;;;;;;;23.7;19;;;;;;;3.2;76.68359;949.3315;;;;
2019/12/20 01:12:45;;;;;;;23.8;19.5;;;;;;;3.17;76.5625;949.3923;;;;
2019/12/20 01:15:11;;;;;;;23.6;19.6;;;;;;;3.21;76.53418;949.3371;;;;
2019/12/20 01:17:36;;;;;;;24;19.3;;;;;;;3.25;76.14844;949.3541;;;;
2019/12/20 01:20:01;;;;;;;22.6;18.9;;;;;;;3.29;75.89355;949.2772;;;;
2019/12/20 01:22:26;;;;;;;23.8;19;;;;;;;3.21;75.30176;949.2809;;;;
2019/12/20 01:24:51;;;;;;;22.4;18.7;;;;;;;3.13;75.37988;949.1414;;;;
2019/12/20 01:27:16;;;;;;;22.8;18.6;;;;;;;3.05;74.96094;949.1674;;;;
2019/12/20 01:29:41;;;;;;;23.6;18.8;;;;;;;2.98;76.46973;949.1506;;;;
2019/12/20 01:32:06;;;;;;;24.7;18.9;;;;;;;2.95;76.83203;949.085;;;;
2019/12/20 01:34:31;;;;;;;26.2;20.1;;;;;;;3.05;76.18359;949.1461;;;;
2019/12/20 01:36:56;;;;;;;23.4;19.3;;;;;;;3.09;76.16797;949.1585;;;;
2019/12/20 01:39:21;;;;;;;25.3;19;;;;;;;3.15;76.04102;949.0992;;;;
2019/12/20 01:41:47;;;;;;;23.2;18.7;;;;;;;3.13;75.85156;949.108;;;;
2019/12/20 01:44:12;;;;;;;24.4;19.1;;;;;;;3.18;75.28516;949.0363;;;;
2019/12/20 01:46:37;;;;;;;26.2;19.1;;;;;;;3;75.29883;948.9861;;;;
2019/12/20 01:49:02;;;;;;;24.7;18.7;;;;;;;2.94;75.87598;948.9494;;;;
2019/12/20 01:51:27;;;;;;;25.2;18.5;;;;;;;3.07;75.56641;948.8917;;;;
2019/12/20 01:53:52;;;;;;;25.6;19.4;;;;;;;3.05;75.79199;948.8306;;;;
2019/12/20 01:56:17;;;;;;;23.8;18.9;;;;;;;3.06;75.71289;948.8683;;;;
2019/12/20 01:58:42;;;;;;;25.6;19.7;;;;;;;3.09;75.9834;948.9224;;;;
2019/12/20 02:01:07;;;;;;;26.1;19.4;;;;;;;2.99;76.26465;948.812;;;;
2019/12/20 02:03:32;;;;;;;23.5;18.6;;;;;;;3.08;75.70605;948.7828;;;;
2019/12/20 02:05:57;;;;;;;118.2;23.3;;;;;;;3.06;77.1543;948.7421;;;;
2019/12/20 02:08:22;;;;;;;38.4;21.4;;;;;;;3.07;77.31641;948.7769;;;;
2019/12/20 02:10:47;;;;;;;30.4;21.1;;;;;;;3.02;76.87891;948.7145;;;;
2019/12/20 02:13:12;;;;;;;28.7;20.3;;;;;;;3.05;76.44824;948.7053;;;;
2019/12/20 02:15:38;;;;;;;47.9;21.3;;;;;;;2.92;76.91895;948.6426;;;;
2019/12/20 02:18:03;;;;;;;33.5;22.3;;;;;;;3.01;76.79883;948.5981;;;;
2019/12/20 02:20:28;;;;;;;34.6;24.6;;;;;;;2.96;76.96191;948.4934;;;;
2019/12/20 02:22:53;;;;;;;33.6;23.7;;;;;;;2.97;77.45703;948.5424;;;;
2019/12/20 02:25:18;;;;;;;36;24;;;;;;;3.03;77.41113;948.5659;;;;
2019/12/20 02:27:43;;;;;;;41.4;24.6;;;;;;;3.04;77.06836;948.5661;;;;
2019/12/20 02:30:08;;;;;;;36.9;24.6;;;;;;;3.07;76.5791;948.544;;;;
2019/12/20 02:32:33;;;;;;;37;25.4;;;;;;;3.01;77.40918;948.498;;;;
2019/12/20 02:34:58;;;;;;;41.6;25.5;;;;;;;2.97;77.98828;948.4216;;;;
2019/12/20 02:37:23;;;;;;;37.5;25.8;;;;;;;3.02;77.96387;948.2922;;;;
2019/12/20 02:39:48;;;;;;;34.7;24.2;;;;;;;3.07;77.76563;948.2484;;;;
2019/12/20 02:42:13;;;;;;;52;27.1;;;;;;;2.86;79.43066;948.188;;;;
2019/12/20 02:44:38;;;;;;;83.6;25;;;;;;;2.92;79.11816;948.1386;;;;
2019/12/20 02:47:04;;;;;;;142.3;27.9;;;;;;;2.83;78.61816;948.0751;;;;
2019/12/20 02:49:29;;;;;;;73.5;26;;;;;;;2.84;78.62207;947.9568;;;;
2019/12/20 02:51:54;;;;;;;169.6;27.4;;;;;;;2.65;78.60938;947.9333;;;;
2019/12/20 02:54:19;;;;;;;135.3;26.7;;;;;;;2.67;78.69238;947.8333;;;;
2019/12/20 02:56:44;;;;;;;37.3;25.2;;;;;;;2.8;78.38184;947.7823;;;;
2019/12/20 02:59:09;;;;;;;40.2;24.9;;;;;;;2.87;78.22363;947.7461;;;;
2019/12/20 03:01:34;;;;;;;39.1;24.9;;;;;;;2.81;78.55664;947.6774;;;;
2019/12/20 03:03:59;;;;;;;33.9;24.7;;;;;;;2.8;78.10547;947.6522;;;;
2019/12/20 03:06:24;;;;;;;37.5;24.1;;;;;;;2.9;77.52637;947.6501;;;;
2019/12/20 03:08:49;;;;;;;39.4;24.7;;;;;;;2.76;78.05469;947.5676;;;;
2019/12/20 03:11:14;;;;;;;38.2;23.8;;;;;;;2.78;78.64453;947.5255;;;;
2019/12/20 03:13:40;;;;;;;37.7;24.7;;;;;;;2.78;78.47266;947.443;;;;
2019/12/20 03:16:05;;;;;;;45.1;25.1;;;;;;;2.81;77.72754;947.3401;;;;
2019/12/20 03:18:30;;;;;;;43.1;25.9;;;;;;;2.84;77.43652;947.2239;;;;
2019/12/20 03:20:55;;;;;;;40.9;24.6;;;;;;;2.86;77.85254;947.1852;;;;
2019/12/20 03:23:20;;;;;;;37.3;24.4;;;;;;;2.77;77.57129;947.0792;;;;
2019/12/20 03:25:45;;;;;;;34.9;24.5;;;;;;;2.79;77.39063;947.1247;;;;
2019/12/20 03:28:10;;;;;;;58.8;25;;;;;;;2.63;77.63965;947.0809;;;;
2019/12/20 03:30:35;;;;;;;32.3;23.7;;;;;;;2.72;77.68848;947.1121;;;;
2019/12/20 03:33:01;;;;;;;29.1;22.9;;;;;;;2.78;77.74609;947.02;;;;
2019/12/20 03:35:26;;;;;;;32.6;24.3;;;;;;;2.72;78.19434;946.9364;;;;
2019/12/20 03:37:51;;;;;;;45.9;24.1;;;;;;;2.77;78.13672;946.842;;;;
2019/12/20 03:40:16;;;;;;;98.3;26;;;;;;;2.68;77.79883;946.8475;;;;
2019/12/20 03:42:41;;;;;;;106.1;25.4;;;;;;;2.56;78.14453;946.8317;;;;
2019/12/20 03:45:06;;;;;;;31.8;24.1;;;;;;;2.7;77.69824;946.7565;;;;
2019/12/20 03:47:31;;;;;;;30.3;23.7;;;;;;;2.73;77.49609;946.7369;;;;
2019/12/20 03:49:57;;;;;;;34.1;25.2;;;;;;;2.73;77.4502;946.6174;;;;
2019/12/20 03:52:22;;;;;;;31.6;23.7;;;;;;;2.65;77.79395;946.6333;;;;
2019/12/20 03:54:47;;;;;;;27;23;;;;;;;2.63;77.47852;946.5916;;;;
2019/12/20 03:57:12;;;;;;;28.3;22;;;;;;;2.7;77.16895;946.6216;;;;
2019/12/20 03:59:37;;;;;;;27.7;21.7;;;;;;;2.7;77.01758;946.5963;;;;
2019/12/20 04:02:26;;;;;;;26.4;22;;;;;;;2.65;76.46875;946.4788;;;;
2019/12/20 04:04:51;;;;;;;28;22.5;;;;;;;2.46;76.08887;946.3686;;;;
2019/12/20 04:07:16;;;;;;;24.7;21.1;;;;;;;2.48;76.16113;946.2767;;;;
2019/12/20 04:09:41;;;;;;;23.6;20.1;;;;;;;2.51;76.23633;946.2032;;;;
2019/12/20 04:12:06;;;;;;;23;19.6;;;;;;;2.46;76.67676;946.1228;;;;
2019/12/20 04:14:31;;;;;;;21.9;18.6;;;;;;;2.53;76.31836;946.103;;;;
2019/12/20 04:16:57;;;;;;;22.1;18.7;;;;;;;2.44;76.52246;946.0719;;;;
2019/12/20 04:19:22;;;;;;;21.6;17.7;;;;;;;2.52;76.39941;945.9877;;;;
2019/12/20 04:21:47;;;;;;;20;16.8;;;;;;;2.6;76.24121;945.9203;;;;
2019/12/20 04:24:12;;;;;;;19.8;16.3;;;;;;;2.58;76.10938;945.8444;;;;
2019/12/20 04:26:37;;;;;;;18.4;16.3;;;;;;;2.6;75.75781;945.8308;;;;
2019/12/20 04:29:02;;;;;;;21.6;17.3;;;;;;;2.52;75.58203;945.7944;;;;
2019/12/20 04:31:27;;;;;;;18.2;16.2;;;;;;;2.53;75.43457;945.7444;;;;
2019/12/20 04:33:52;;;;;;;19.9;17.1;;;;;;;2.36;75.76172;945.6459;;;;
2019/12/20 04:36:17;;;;;;;20.6;16.5;;;;;;;2.42;76.01172;945.6791;;;;
2019/12/20 04:38:43;;;;;;;18.7;16.7;;;;;;;2.27;75.97559;945.4791;;;;
2019/12/20 04:41:08;;;;;;;18.2;16.1;;;;;;;2.32;75.87012;945.423;;;;
2019/12/20 04:43:33;;;;;;;19.7;16.1;;;;;;;2.36;75.76172;945.4036;;;;
2019/12/20 04:45:58;;;;;;;19.5;16.8;;;;;;;2.33;75.63965;945.3811;;;;
2019/12/20 04:48:23;;;;;;;20.6;16.6;;;;;;;2.34;75.09082;945.3405;;;;
2019/12/20 04:50:48;;;;;;;19.3;17;;;;;;;2.13;76.11133;945.2053;;;;
2019/12/20 04:53:13;;;;;;;24.6;19.8;;;;;;;2.14;76.07617;945.1456;;;;
2019/12/20 04:55:38;;;;;;;18.5;16.4;;;;;;;2.1;76.51855;945.0134;;;;
2019/12/20 04:58:03;;;;;;;18.7;16.5;;;;;;;1.93;76.49023;944.9424;;;;
2019/12/20 05:00:28;;;;;;;16.4;14.7;;;;;;;1.69;77.22656;944.932;;;;
2019/12/20 05:02:53;;;;;;;17.3;14.4;;;;;;;1.81;76.90234;944.8663;;;;
2019/12/20 05:05:18;;;;;;;15.6;13.9;;;;;;;1.74;77.10742;944.8582;;;;
2019/12/20 05:07:43;;;;;;;15.2;13.6;;;;;;;1.81;76.91406;944.8359;;;;
2019/12/20 05:10:08;;;;;;;16.3;14.5;;;;;;;1.91;76.63477;944.7277;;;;
2019/12/20 05:12:33;;;;;;;16;14.3;;;;;;;2;76.11035;944.5508;;;;
2019/12/20 05:14:58;;;;;;;16.9;13.7;;;;;;;2.06;76.19043;944.4777;;;;
2019/12/20 05:17:24;;;;;;;14.9;13.3;;;;;;;2.12;75.95996;944.4023;;;;
2019/12/20 05:19:49;;;;;;;17.3;14.2;;;;;;;2.07;75.65234;944.3819;;;;
2019/12/20 05:22:14;;;;;;;16.6;14.8;;;;;;;2.09;75.63379;944.2952;;;;
2019/12/20 05:24:39;;;;;;;19;15.8;;;;;;;2.07;75.90625;944.2335;;;;
2019/12/20 05:27:04;;;;;;;19.4;16.2;;;;;;;2.15;75.94141;944.2992;;;;
2019/12/20 05:29:29;;;;;;;21.6;17.8;;;;;;;2.13;75.66309;944.2985;;;;
2019/12/20 05:31:54;;;;;;;21.9;17.7;;;;;;;2.1;75.89844;944.2035;;;;
2019/12/20 05:34:19;;;;;;;19.9;16.4;;;;;;;2.22;75.63281;944.1284;;;;
2019/12/20 05:36:44;;;;;;;19.8;17;;;;;;;2.17;75.42773;944.0906;;;;
2019/12/20 05:39:09;;;;;;;20.3;17.5;;;;;;;2.24;75.08594;943.9619;;;;
2019/12/20 05:41:34;;;;;;;20.7;18.3;;;;;;;2.27;74.91797;943.9604;;;;
2019/12/20 05:44:00;;;;;;;22.2;18.5;;;;;;;2.23;74.87402;943.9133;;;;
2019/12/20 05:46:25;;;;;;;19.4;15.9;;;;;;;2.34;77.0332;943.8281;;;;
2019/12/20 05:48:50;;;;;;;20.3;17.8;;;;;;;2.22;75.9541;943.7871;;;;
2019/12/20 05:51:15;;;;;;;20.9;18.2;;;;;;;2.27;74.99805;943.7642;;;;
2019/12/20 05:53:40;;;;;;;20.7;16.8;;;;;;;2.13;75.63965;943.738;;;;
2019/12/20 05:56:05;;;;;;;19;15.6;;;;;;;2.18;75.96973;943.5979;;;;
2019/12/20 05:58:30;;;;;;;19.6;16.6;;;;;;;2.05;76.22168;943.4394;;;;
2019/12/20 06:00:55;;;;;;;18;16;;;;;;;2.09;76.45898;943.3188;;;;
2019/12/20 06:03:20;;;;;;;21.6;18.3;;;;;;;2.09;76.78125;943.2216;;;;
2019/12/20 06:05:46;;;;;;;19.3;17.2;;;;;;;2.23;76.03613;943.2059;;;;
2019/12/20 06:08:11;;;;;;;18.7;16.7;;;;;;;2.01;76.7666;943.1884;;;;
2019/12/20 06:10:36;;;;;;;19;16.6;;;;;;;1.96;77.125;943.188;;;;
2019/12/20 06:13:01;;;;;;;18.3;16.1;;;;;;;1.98;76.94629;943.2048;;;;
2019/12/20 06:15:26;;;;;;;20.7;16.1;;;;;;;2.03;76.91895;943.1987;;;;
2019/12/20 06:17:51;;;;;;;18.8;16.8;;;;;;;2.16;76.50684;943.2115;;;;
2019/12/20 06:20:16;;;;;;;19.3;16.2;;;;;;;2.21;76.32031;943.1099;;;;
2019/12/20 06:22:41;;;;;;;19;16;;;;;;;2.27;75.65332;943.1443;;;;
2019/12/20 06:25:06;;;;;;;19.5;16.4;;;;;;;2.1;76.73633;943.1803;;;;
2019/12/20 06:27:31;;;;;;;18.7;16.1;;;;;;;1.99;77.3252;943.1451;;;;
2019/12/20 06:29:56;;;;;;;20.5;16.7;;;;;;;1.92;77.49609;943.1536;;;;
2019/12/20 06:32:21;;;;;;;19.6;16.2;;;;;;;1.89;77.75488;943.1375;;;;
2019/12/20 06:34:47;;;;;;;21.2;17.2;;;;;;;1.91;77.67969;943.1462;;;;
2019/12/20 06:37:12;;;;;;;19.3;16;;;;;;;1.93;77.51074;943.1269;;;;
2019/12/20 06:39:37;;;;;;;19.9;16.6;;;;;;;2.03;76.79492;943.1381;;;;
2019/12/20 06:42:02;;;;;;;23.8;16.2;;;;;;;2;76.65039;943.1127;;;;
2019/12/20 06:44:27;;;;;;;22.9;17.2;;;;;;;2.09;76.43848;943.1021;;;;
2019/12/20 06:46:52;;;;;;;20.5;15.9;;;;;;;1.96;76.88477;943.1316;;;;
2019/12/20 06:49:17;;;;;;;19.8;15.6;;;;;;;1.95;77.11133;943.0776;;;;
2019/12/20 06:51:42;;;;;;;20.1;16.2;;;;;;;1.99;77.13086;943.1433;;;;
2019/12/20 06:54:07;;;;;;;19.4;15.6;;;;;;;2.01;76.82422;943.0867;;;;
2019/12/20 06:56:32;;;;;;;24.4;16.3;;;;;;;2.03;76.75879;943.1375;;;;
2019/12/20 06:58:57;;;;;;;22.9;17;;;;;;;2.03;76.98828;943.1728;;;;
2019/12/20 07:01:22;;;;;;;20;15.8;;;;;;;2.08;76.56152;943.1652;;;;
2019/12/20 07:03:48;;;;;;;25.2;14.8;;;;;;;2.28;77.33398;943.1091;;;;
2019/12/20 07:06:13;;;;;;;24.5;16.5;;;;;;;2.39;76.05371;943.0215;;;;
2019/12/20 07:08:38;;;;;;;19.2;14.6;;;;;;;2.52;75.43262;942.9971;;;;
2019/12/20 07:11:03;;;;;;;17.7;14.7;;;;;;;2.41;75.10254;942.8945;;;;
2019/12/20 07:13:28;;;;;;;18;15.2;;;;;;;2.5;74.2793;942.8273;;;;
2019/12/20 07:15:53;;;;;;;17.9;13.6;;;;;;;2.61;73.82617;942.8689;;;;
2019/12/20 07:18:18;;;;;;;18.7;14.4;;;;;;;2.65;73.60352;942.8639;;;;
2019/12/20 07:20:43;;;;;;;18.2;14.4;;;;;;;2.66;73.375;942.8139;;;;
2019/12/20 07:23:08;;;;;;;18.4;14.7;;;;;;;2.73;73.07715;942.7731;;;;
2019/12/20 07:25:34;;;;;;;17.9;13.5;;;;;;;2.83;72.89746;942.6816;;;;
2019/12/20 07:27:59;;;;;;;16.8;13.9;;;;;;;2.88;72.30859;942.5842;;;;
2019/12/20 07:30:24;;;;;;;17.3;13.7;;;;;;;2.94;72.23828;942.3464;;;;
2019/12/20 07:32:49;;;;;;;18.8;14.4;;;;;;;3.02;72.02148;942.2795;;;;
2019/12/20 07:35:14;;;;;;;18.9;15.2;;;;;;;2.94;72.00781;942.2308;;;;
2019/12/20 07:37:39;;;;;;;19.7;16;;;;;;;2.85;72.34961;942.182;;;;
2019/12/20 07:40:05;;;;;;;26.7;20.2;;;;;;;2.92;74.25;942.125;;;;
2019/12/20 07:42:30;;;;;;;24.9;18.3;;;;;;;2.93;73.69727;942.108;;;;
2019/12/20 07:44:55;;;;;;;25.5;19.2;;;;;;;3.01;73.72266;942.0928;;;;
2019/12/20 07:47:20;;;;;;;24.4;18.3;;;;;;;3.02;73.01172;942.1172;;;;
2019/12/20 07:49:45;;;;;;;25.6;19.7;;;;;;;3.24;72.21777;942.0475;;;;
2019/12/20 07:52:10;;;;;;;25.3;19.7;;;;;;;4.74;67.2373;942.0253;;;;
2019/12/20 07:54:36;;;;;;;27.3;21.8;;;;;;;4.83;67.71387;942.0043;;;;
2019/12/20 07:57:01;;;;;;;25.9;19.7;;;;;;;4.98;65.64258;941.978;;;;
2019/12/20 07:59:26;;;;;;;22;18;;;;;;;4.83;66.46484;941.9963;;;;
2019/12/20 08:01:51;;;;;;;23.8;18.8;;;;;;;5.34;65.80176;941.9835;;;;
2019/12/20 08:04:16;;;;;;;26.4;19.4;;;;;;;5.69;65.56641;941.9924;;;;
2019/12/20 08:06:42;;;;;;;22.8;17.8;;;;;;;6.2;63.7998;942.0044;;;;
2019/12/20 08:09:07;;;;;;;21.1;16.4;;;;;;;6.28;62.90625;942.009;;;;
2019/12/20 08:11:32;;;;;;;21.6;16.5;;;;;;;6.47;62.67773;941.986;;;;
2019/12/20 08:13:57;;;;;;;26.6;18.4;;;;;;;7.11;60.80859;941.9439;;;;
2019/12/20 08:16:22;;;;;;;21.3;16.7;;;;;;;8.33;56.43359;941.8782;;;;
2019/12/20 08:18:47;;;;;;;19;14.9;;;;;;;8.55;55.75;941.7573;;;;
2019/12/20 08:21:12;;;;;;;19.1;15.5;;;;;;;8.09;57.41699;941.7131;;;;
2019/12/20 08:23:38;;;;;;;20.1;15.5;;;;;;;7.48;59.27734;941.6727;;;;
2019/12/20 08:26:03;;;;;;;18.7;15;;;;;;;7.18;60.53906;941.6128;;;;
2019/12/20 08:28:28;;;;;;;23.7;17.3;;;;;;;6.98;61.58008;941.5969;;;;
2019/12/20 08:30:53;;;;;;;20.1;16.3;;;;;;;6.66;62.58008;941.6344;;;;
2019/12/20 08:33:18;;;;;;;21.7;15.6;;;;;;;6.47;63.84082;941.6733;;;;
2019/12/20 08:35:43;;;;;;;19.6;15.8;;;;;;;6;66.20508;941.6845;;;;
2019/12/20 08:38:09;;;;;;;21.5;15.5;;;;;;;5.57;68.60742;941.7338;;;;
2019/12/20 08:40:34;;;;;;;18.3;15.1;;;;;;;5.27;69.90039;941.6635;;;;
2019/12/20 08:42:59;;;;;;;18.8;15;;;;;;;5.36;69.93848;941.6322;;;;
2019/12/20 08:45:24;;;;;;;20.4;16.7;;;;;;;5.26;70.62891;941.5681;;;;
2019/12/20 08:47:49;;;;;;;20.3;15.5;;;;;;;5.35;70.40137;941.6046;;;;
2019/12/20 08:50:14;;;;;;;20.6;15.4;;;;;;;5.27;70.96777;941.5735;;;;
2019/12/20 08:52:39;;;;;;;21.7;16.4;;;;;;;5.33;71.13867;941.5518;;;;
2019/12/20 08:55:05;;;;;;;20.9;16.3;;;;;;;5.4;71.05762;941.5549;;;;
2019/12/20 08:57:30;;;;;;;23;15.1;;;;;;;5.47;71.3584;941.582;;;;
2019/12/20 08:59:55;;;;;;;20.6;16.1;;;;;;;5.45;71.67969;941.6238;;;;
2019/12/20 09:02:20;;;;;;;22.7;15.9;;;;;;;5.45;72.07324;941.6312;;;;
2019/12/20 09:04:45;;;;;;;20.1;15.9;;;;;;;5.45;72.08691;941.6211;;;;
2019/12/20 09:07:10;;;;;;;21.7;16.1;;;;;;;5.53;71.88965;941.6005;;;;
2019/12/20 09:09:35;;;;;;;17.4;14.8;;;;;;;5.76;71.2793;941.5885;;;;
2019/12/20 09:12:01;;;;;;;19.1;14.8;;;;;;;5.84;71.04883;941.5464;;;;
2019/12/20 09:14:26;;;;;;;21.3;16.1;;;;;;;5.89;70.88379;941.463;;;;
2019/12/20 09:16:51;;;;;;;22.3;15.5;;;;;;;5.92;70.83203;941.4785;;;;
2019/12/20 09:19:16;;;;;;;21.6;15.6;;;;;;;5.87;71.1709;941.519;;;;
2019/12/20 09:21:41;;;;;;;18.7;15.1;;;;;;;5.98;71.3291;941.4146;;;;
2019/12/20 09:24:06;;;;;;;24.2;17.9;;;;;;;5.98;71.80469;941.4651;;;;
2019/12/20 09:26:31;;;;;;;20.8;15.6;;;;;;;6.07;71.59863;941.3645;;;;
2019/12/20 09:28:56;;;;;;;20.3;15.5;;;;;;;5.95;72.28613;941.3358;;;;
2019/12/20 09:31:21;;;;;;;23.1;16.5;;;;;;;5.84;73.3457;941.2695;;;;
2019/12/20 09:33:47;;;;;;;19.5;16;;;;;;;5.9;73.34375;941.264;;;;
2019/12/20 09:36:12;;;;;;;18.6;15.3;;;;;;;6.07;73.15332;941.1758;;;;
2019/12/20 09:38:37;;;;;;;21.7;15.6;;;;;;;6.23;72.50781;941.1125;;;;
2019/12/20 09:41:02;;;;;;;20;16.2;;;;;;;6.27;72.66602;940.954;;;;
2019/12/20 09:43:27;;;;;;;23;16;;;;;;;6.52;72.28906;940.8541;;;;
2019/12/20 09:45:52;;;;;;;18.5;15.4;;;;;;;6.68;71.68945;940.8593;;;;
2019/12/20 09:48:17;;;;;;;22.4;15.9;;;;;;;6.94;71.31348;940.8666;;;;
2019/12/20 09:50:43;;;;;;;21.6;18.2;;;;;;;7.17;70.79492;940.829;;;;
2019/12/20 09:53:08;;;;;;;23.4;17.4;;;;;;;7.22;70.97754;940.7797;;;;
2019/12/20 09:55:33;;;;;;;20.5;16.7;;;;;;;7.25;71.65625;940.6498;;;;
2019/12/20 09:57:58;;;;;;;21.3;15.2;;;;;;;7.38;71.57422;940.6121;;;;
2019/12/20 10:00:23;;;;;;;19;15.7;;;;;;;7.4;71.70313;940.5435;;;;
2019/12/20 10:02:48;;;;;;;16.8;12.9;;;;;;;7.59;71.61914;940.5144;;;;
2019/12/20 10:05:14;;;;;;;15.9;11.9;;;;;;;7.61;70.86719;940.534;;;;
2019/12/20 10:07:39;;;;;;;18.7;14.2;;;;;;;7.79;71.21094;940.5217;;;;
2019/12/20 10:10:04;;;;;;;17.7;14.3;;;;;;;7.84;71.32422;940.4475;;;;
2019/12/20 10:12:29;;;;;;;16.7;14.7;;;;;;;7.72;72.00195;940.3636;;;;
2019/12/20 10:14:54;;;;;;;16.3;14;;;;;;;7.69;72.46387;940.3125;;;;
2019/12/20 10:17:19;;;;;;;16.3;12.8;;;;;;;7.72;71.95605;940.2769;;;;
2019/12/20 10:19:44;;;;;;;19;12.2;;;;;;;7.74;71.78516;940.1853;;;;
2019/12/20 10:22:09;;;;;;;16.8;12.8;;;;;;;7.78;71.96582;940.1289;;;;
2019/12/20 10:24:35;;;;;;;16.1;11.4;;;;;;;7.7;72.26563;940.0683;;;;
2019/12/20 10:27:00;;;;;;;15.8;13.2;;;;;;;7.65;73.17773;940.088;;;;
2019/12/20 10:29:25;;;;;;;17.2;13.4;;;;;;;7.74;73.20605;940.0234;;;;
2019/12/20 10:31:50;;;;;;;16.7;13.8;;;;;;;7.58;73.99414;940.0806;;;;
2019/12/20 10:34:15;;;;;;;22.7;14.7;;;;;;;7.65;74.08496;940.1326;;;;
2019/12/20 10:36:40;;;;;;;16.9;14.2;;;;;;;7.8;73.79883;940.1508;;;;
2019/12/20 10:39:05;;;;;;;16;13.6;;;;;;;8.03;73.37109;940.1534;;;;
2019/12/20 10:41:30;;;;;;;19.2;14;;;;;;;8.09;73.75586;940.1052;;;;
2019/12/20 10:43:56;;;;;;;16.3;13.1;;;;;;;8.26;72.89648;940.0874;;;;
2019/12/20 10:46:21;;;;;;;14.9;13;;;;;;;8.24;73.15039;940.127;;;;
2019/12/20 10:48:46;;;;;;;14.4;12.6;;;;;;;8.31;72.59082;940.1325;;;;
2019/12/20 10:51:11;;;;;;;16.5;12.7;;;;;;;8.4;73.24707;940.1046;;;;
2019/12/20 10:53:36;;;;;;;15.6;13.4;;;;;;;8.33;74.0166;940.1815;;;;
2019/12/20 10:56:01;;;;;;;17.9;13;;;;;;;8.42;73.19141;940.1108;;;;
2019/12/20 10:58:26;;;;;;;16.3;13.1;;;;;;;8.53;73.6543;940.0814;;;;
2019/12/20 11:00:52;;;;;;;16;12.7;;;;;;;8.6;73.07324;940.0795;;;;
2019/12/20 11:03:17;;;;;;;18.8;13.5;;;;;;;8.63;73.29883;940.0436;;;;
2019/12/20 11:05:43;;;;;;;17.3;12.8;;;;;;;8.7;72.90137;939.9719;;;;
2019/12/20 11:08:08;;;;;;;16.5;13.6;;;;;;;8.57;74.38574;939.9872;;;;
2019/12/20 11:10:33;;;;;;;18.2;13.5;;;;;;;8.55;74.99902;939.9261;;;;
2019/12/20 11:12:58;;;;;;;19.5;13.6;;;;;;;8.58;74.87695;939.9036;;;;
2019/12/20 11:15:23;;;;;;;19.2;13.7;;;;;;;8.54;74.66113;939.9344;;;;
2019/12/20 11:17:48;;;;;;;19.6;14.1;;;;;;;8.44;76.05371;939.8994;;;;
2019/12/20 11:20:13;;;;;;;18.9;14.4;;;;;;;8.32;76.81445;939.9724;;;;
2019/12/20 11:22:38;;;;;;;19.3;13.5;;;;;;;8.34;76.2002;939.9172;;;;
2019/12/20 11:25:04;;;;;;;19.2;13.3;;;;;;;8.36;76.58789;939.88;;;;
2019/12/20 11:27:29;;;;;;;16.6;12.5;;;;;;;8.35;76.71484;939.8528;;;;
2019/12/20 11:29:54;;;;;;;16.2;12.5;;;;;;;8.33;76.19824;939.8166;;;;
2019/12/20 11:32:19;;;;;;;17.4;13.1;;;;;;;8.36;75.80664;939.7731;;;;
2019/12/20 11:35:43;;;;;;;19.3;14.2;;;;;;;8.3;77.50977;939.726;;;;
2019/12/20 11:38:08;;;;;;;19.1;14.6;;;;;;;8.2;77.57227;939.7097;;;;
2019/12/20 11:40:33;;;;;;;18.9;14.6;;;;;;;8.14;78.33008;939.6387;;;;
2019/12/20 11:42:58;;;;;;;19.8;15.5;;;;;;;8.13;78.48047;939.6252;;;;
2019/12/20 11:45:23;;;;;;;22;15.9;;;;;;;8.04;78.87305;939.6027;;;;
2019/12/20 11:47:48;;;;;;;19.7;15.2;;;;;;;7.85;79.30371;939.6082;;;;
2019/12/20 11:50:13;;;;;;;21.5;16.3;;;;;;;7.85;79.49023;939.5494;;;;
2019/12/20 11:52:38;;;;;;;17.6;13.8;;;;;;;7.98;78.58105;939.4846;;;;
2019/12/20 11:55:03;;;;;;;16.9;13.8;;;;;;;8.05;78.52539;939.425;;;;
2019/12/20 11:57:28;;;;;;;17.6;14.2;;;;;;;8.09;77.96094;939.3412;;;;
2019/12/20 11:59:53;;;;;;;17.3;13.3;;;;;;;8.15;77.77441;939.2952;;;;
2019/12/20 12:02:19;;;;;;;19.1;13.5;;;;;;;8.13;77.70117;939.1994;;;;
2019/12/20 12:04:44;;;;;;;19;14.8;;;;;;;8.14;78.79785;939.0997;;;;
2019/12/20 12:07:09;;;;;;;19.9;14;;;;;;;8.18;78.28125;939.057;;;;
2019/12/20 12:09:34;;;;;;;17.6;14.4;;;;;;;8.16;79.23242;938.9614;;;;
2019/12/20 12:11:59;;;;;;;18.7;13.8;;;;;;;8.12;78.71191;938.9144;;;;
2019/12/20 12:14:24;;;;;;;19;14.2;;;;;;;8.16;79.08105;938.8951;;;;
2019/12/20 12:16:49;;;;;;;18.3;15.1;;;;;;;8.06;80.26172;938.8908;;;;
2019/12/20 12:19:14;;;;;;;17;12.7;;;;;;;8.1;79.5127;938.8222;;;;
2019/12/20 12:21:39;;;;;;;21.1;15.4;;;;;;;8.07;79.55371;938.7567;;;;
2019/12/20 12:24:04;;;;;;;18.8;15;;;;;;;8.11;79.89844;938.7608;;;;
2019/12/20 12:26:29;;;;;;;22;16.4;;;;;;;7.99;80.43652;938.7502;;;;
2019/12/20 12:28:54;;;;;;;19.7;15.3;;;;;;;8.06;80.10059;938.5692;;;;
2019/12/20 12:31:19;;;;;;;17.8;14.2;;;;;;;8.02;79.88184;938.4213;;;;
2019/12/20 12:33:44;;;;;;;19.3;14.5;;;;;;;8.04;79.70117;938.5751;;;;
2019/12/20 12:36:09;;;;;;;36.4;22.6;;;;;;;8.05;81.77637;938.6127;;;;
2019/12/20 12:38:35;;;;;;;21.7;16.1;;;;;;;8.07;80.68262;938.5833;;;;
2019/12/20 12:41:00;;;;;;;23.6;16.3;;;;;;;7.94;80.95117;938.4867;;;;
2019/12/20 12:43:25;;;;;;;20.8;15.9;;;;;;;7.94;81.05566;938.3809;;;;
2019/12/20 12:45:50;;;;;;;21.8;16.3;;;;;;;7.9;80.98926;938.442;;;;
2019/12/20 12:48:15;;;;;;;22.7;16.4;;;;;;;7.86;81.0293;938.4911;;;;
2019/12/20 12:50:40;;;;;;;21.6;15.6;;;;;;;7.88;80.98633;938.3544;;;;
2019/12/20 12:53:05;;;;;;;18.6;15.6;;;;;;;7.9;81.23535;938.2457;;;;
2019/12/20 12:55:30;;;;;;;20;16;;;;;;;7.86;81.55371;938.133;;;;
2019/12/20 12:57:55;;;;;;;19.4;13.8;;;;;;;7.91;80.86426;938.1373;;;;
2019/12/20 13:00:20;;;;;;;18.6;13.9;;;;;;;7.98;80.54004;938.0793;;;;
2019/12/20 13:02:45;;;;;;;21.4;15.5;;;;;;;7.97;80.74805;938.1142;;;;
2019/12/20 13:05:10;;;;;;;23.5;15.2;;;;;;;8;80.47363;938.0867;;;;
2019/12/20 13:07:35;;;;;;;20;15;;;;;;;8.06;79.9375;938.0645;;;;
2019/12/20 13:10:00;;;;;;;21.7;16.4;;;;;;;8.07;80.3584;938.0767;;;;
2019/12/20 13:12:25;;;;;;;19.4;15.8;;;;;;;8.09;80.58105;938.1311;;;;
2019/12/20 13:14:51;;;;;;;17.7;14.8;;;;;;;8.11;79.8291;938.1256;;;;
2019/12/20 13:17:16;;;;;;;22.4;16.4;;;;;;;8.08;80.5459;938.0479;;;;
2019/12/20 13:19:41;;;;;;;24.8;16.4;;;;;;;8.06;79.77441;938.0558;;;;
2019/12/20 13:22:06;;;;;;;23.9;16.7;;;;;;;8.08;79.80078;938.0236;;;;
2019/12/20 13:24:31;;;;;;;23.7;16.6;;;;;;;8.07;79.40234;937.8423;;;;
2019/12/20 13:26:56;;;;;;;25.1;18;;;;;;;8.09;79.08008;937.7528;;;;
2019/12/20 13:29:21;;;;;;;28.6;19.1;;;;;;;8.05;79.27148;937.8149;;;;
2019/12/20 13:31:46;;;;;;;30.5;20.6;;;;;;;8.01;77.87695;937.6916;;;;
2019/12/20 13:34:11;;;;;;;27.6;19.4;;;;;;;7.96;77.47266;937.7053;;;;
2019/12/20 13:36:36;;;;;;;28.9;20.7;;;;;;;7.97;76.90332;937.6523;;;;
2019/12/20 13:39:02;;;;;;;27.9;22;;;;;;;7.94;78.12012;937.7475;;;;
2019/12/20 13:41:27;;;;;;;35.3;23.4;;;;;;;7.92;78.03418;937.7857;;;;
2019/12/20 13:43:52;;;;;;;35.1;23.6;;;;;;;7.85;77.79004;937.743;;;;
2019/12/20 13:46:17;;;;;;;35.2;22.4;;;;;;;7.83;77.34375;937.8046;;;;
2019/12/20 13:48:42;;;;;;;33.5;23.2;;;;;;;7.85;76.91602;937.8369;;;;
2019/12/20 13:51:07;;;;;;;32.3;21.9;;;;;;;7.91;75.99512;937.8105;;;;
2019/12/20 13:53:32;;;;;;;31.1;23.5;;;;;;;7.9;75.95703;937.6828;;;;
2019/12/20 13:55:57;;;;;;;35;22.2;;;;;;;7.8;75.87207;937.4537;;;;
2019/12/20 13:58:22;;;;;;;29.5;22.3;;;;;;;7.86;75.81152;937.295;;;;
2019/12/20 14:00:47;;;;;;;32.7;22.5;;;;;;;7.88;75.59473;937.3052;;;;
2019/12/20 14:03:12;;;;;;;37.1;24.5;;;;;;;7.9;74.99023;937.3089;;;;
2019/12/20 14:05:38;;;;;;;45.4;30.7;;;;;;;7.86;74.49512;937.1797;;;;
2019/12/20 14:08:03;;;;;;;36.6;27.7;;;;;;;7.92;73.79492;937.2285;;;;